createdAt,value
2022-08-07T00:01:44.041Z,101254.03
2022-08-07T00:04:15.498Z,101266.00
2022-08-07T00:06:51.868Z,101266.47
2022-08-07T00:09:22.804Z,101259.59
2022-08-07T00:11:55.351Z,101254.25
2022-08-07T00:14:29.995Z,101258.00
2022-08-07T00:17:02.462Z,101251.34
2022-08-07T00:20:00.398Z,101253.31
2022-08-07T00:22:24.440Z,101265.03
2022-08-07T00:25:16.495Z,101262.97
2022-08-07T00:27:52.395Z,101267.25
2022-08-07T00:30:27.400Z,101259.38
2022-08-07T00:32:58.223Z,101260.97
2022-08-07T00:35:27.587Z,101262.00
2022-08-07T00:37:58.804Z,101264.69
2022-08-07T00:40:39.798Z,101267.44
2022-08-07T00:43:59.664Z,101269.25
2022-08-07T00:46:00.292Z,101267.03
2022-08-07T00:48:32.218Z,101264.78
2022-08-07T00:51:01.275Z,101264.16
2022-08-07T00:53:39.271Z,101267.81
2022-08-07T00:56:17.464Z,101276.16
2022-08-07T00:58:46.826Z,101272.25
2022-08-07T01:01:16.650Z,101267.97
2022-08-07T01:03:55.981Z,101270.56
2022-08-07T01:06:30.716Z,101273.38
2022-08-07T01:09:01.572Z,101266.44
2022-08-07T01:12:28.038Z,101268.13
2022-08-07T01:14:28.113Z,101263.91
2022-08-07T01:16:56.909Z,101262.41
2022-08-07T01:19:32.559Z,101267.25
2022-08-07T01:22:03.179Z,101268.41
2022-08-07T01:24:37.266Z,101266.88
2022-08-07T01:27:06.518Z,101264.56
2022-08-07T01:29:48.463Z,101274.31
2022-08-07T01:32:19.003Z,101268.38
2022-08-07T01:34:51.689Z,101272.88
2022-08-07T01:37:20.110Z,101270.22
2022-08-07T01:39:50.291Z,101271.97
2022-08-07T01:42:39.523Z,101270.47
2022-08-07T01:45:17.940Z,101266.19
2022-08-07T01:48:19.203Z,101262.84
2022-08-07T01:50:43.145Z,101263.91
2022-08-07T01:53:20.928Z,101263.97
2022-08-07T01:56:07.352Z,101264.91
2022-08-07T01:58:45.237Z,101260.66
2022-08-07T02:01:25.531Z,101262.38
2022-08-07T02:04:30.963Z,101269.47
2022-08-07T02:07:04.720Z,101266.88
2022-08-07T02:09:52.731Z,101273.03
2022-08-07T02:12:29.200Z,101269.66
2022-08-07T02:15:01.827Z,101271.44
2022-08-07T02:17:49.474Z,101271.56
2022-08-07T02:20:23.292Z,101271.69
2022-08-07T02:23:00.089Z,101270.81
2022-08-07T02:26:31.115Z,101271.84
2022-08-07T02:28:27.270Z,101270.91
2022-08-07T02:31:10.268Z,101264.94
2022-08-07T02:34:02.871Z,101270.28
2022-08-07T02:36:33.954Z,101266.72
2022-08-07T02:39:17.102Z,101271.84
2022-08-07T02:42:00.534Z,101269.28
2022-08-07T02:44:34.810Z,101275.47
2022-08-07T02:47:07.070Z,101261.66
2022-08-07T02:49:58.045Z,101266.63
2022-08-07T02:52:41.412Z,101269.84
2022-08-07T02:55:27.794Z,101269.19
2022-08-07T02:58:16.494Z,101278.03
2022-08-07T03:00:54.996Z,101272.13
2022-08-07T03:03:25.713Z,101283.47
2022-08-07T03:06:16.403Z,101274.84
2022-08-07T03:08:46.720Z,101281.03
2022-08-07T03:11:14.954Z,101280.25
2022-08-07T03:13:49.817Z,101286.31
2022-08-07T03:16:22.856Z,101284.66
2022-08-07T03:18:56.728Z,101281.28
2022-08-07T03:21:25.294Z,101284.78
2022-08-07T03:24:17.805Z,101287.38
2022-08-07T03:26:58.170Z,101287.16
2022-08-07T03:29:37.702Z,101284.75
2022-08-07T03:32:13.100Z,101283.88
2022-08-07T03:34:47.376Z,101282.94
2022-08-07T03:37:37.386Z,101282.94
2022-08-07T03:40:16.973Z,101288.09
2022-08-07T03:42:46.265Z,101289.78
2022-08-07T03:45:29.383Z,101287.81
2022-08-07T03:48:04.407Z,101286.00
2022-08-07T03:50:38.812Z,101285.22
2022-08-07T03:53:07.795Z,101290.34
2022-08-07T03:55:52.852Z,101285.06
2022-08-07T03:59:05.452Z,101282.38
2022-08-07T04:01:19.688Z,101289.31
2022-08-07T04:03:55.052Z,101301.47
2022-08-07T04:06:37.810Z,101285.75
2022-08-07T04:09:15.762Z,101297.91
2022-08-07T04:12:27.614Z,101293.34
2022-08-07T04:14:43.669Z,101304.44
2022-08-07T04:17:20.858Z,101302.63
2022-08-07T04:19:54.638Z,101307.81
2022-08-07T04:22:29.109Z,101304.97
2022-08-07T04:25:01.949Z,101307.25
2022-08-07T04:27:35.786Z,101312.31
2022-08-07T04:30:21.229Z,101311.34
2022-08-07T04:33:08.299Z,101317.06
2022-08-07T04:35:39.975Z,101322.19
2022-08-07T04:38:13.824Z,101316.84
2022-08-07T04:40:52.891Z,101318.47
2022-08-07T04:44:12.271Z,101322.66
2022-08-07T04:47:03.906Z,101321.63
2022-08-07T04:49:57.758Z,101327.16
2022-08-07T04:52:59.417Z,101332.97
2022-08-07T04:58:10.441Z,101338.94
2022-08-07T04:59:16.886Z,101337.88
2022-08-07T05:01:53.094Z,101338.53
2022-08-07T05:04:34.149Z,101338.78
2022-08-07T05:07:20.495Z,101341.00
2022-08-07T05:10:02.442Z,101353.13
2022-08-07T05:12:58.474Z,101356.81
2022-08-07T05:15:41.554Z,101352.16
2022-08-07T05:18:32.430Z,101350.66
2022-08-07T05:21:04.673Z,101362.38
2022-08-07T05:23:47.741Z,101365.91
2022-08-07T05:26:24.006Z,101359.44
2022-08-07T05:29:04.224Z,101358.66
2022-08-07T05:31:38.611Z,101364.63
2022-08-07T05:34:17.179Z,101364.06
2022-08-07T05:36:52.676Z,101364.88
2022-08-07T05:40:13.821Z,101367.31
2022-08-07T05:42:34.507Z,101369.94
2022-08-07T05:45:26.387Z,101368.06
2022-08-07T05:48:01.888Z,101374.31
2022-08-07T05:50:39.605Z,101377.44
2022-08-07T05:54:13.344Z,101375.59
2022-08-07T05:56:02.852Z,101376.41
2022-08-07T05:58:36.216Z,101372.75
2022-08-07T06:01:12.032Z,101373.06
2022-08-07T06:03:58.954Z,101376.78
2022-08-07T06:06:36.987Z,101373.13
2022-08-07T06:09:08.752Z,101375.69
2022-08-07T06:11:42.959Z,101370.94
2022-08-07T06:14:20.807Z,101367.63
2022-08-07T06:16:55.818Z,101374.34
2022-08-07T06:19:57.931Z,101377.66
2022-08-07T06:22:24.010Z,101384.16
2022-08-07T06:25:10.164Z,101380.34
2022-08-07T06:28:00.731Z,101378.34
2022-08-07T06:30:35.337Z,101375.56
2022-08-07T06:33:16.295Z,101379.78
2022-08-07T06:36:06.817Z,101377.84
2022-08-07T06:38:36.439Z,101383.38
2022-08-07T06:42:02.655Z,101385.88
2022-08-07T06:44:51.206Z,101389.22
2022-08-07T06:47:21.041Z,101394.34
2022-08-07T06:49:52.283Z,101392.50
2022-08-07T06:52:35.967Z,101398.22
2022-08-07T06:55:47.860Z,101399.38
2022-08-07T06:58:27.416Z,101399.38
2022-08-07T07:01:06.551Z,101403.00
2022-08-07T07:03:48.664Z,101400.81
2022-08-07T07:06:26.318Z,101392.38
2022-08-07T07:08:56.817Z,101400.34
2022-08-07T07:12:07.673Z,101395.59
2022-08-07T07:14:18.193Z,101392.22
2022-08-07T07:16:53.645Z,101390.81
2022-08-07T07:19:57.442Z,101395.28
2022-08-07T07:22:35.730Z,101392.19
2022-08-07T07:26:30.894Z,101394.75
2022-08-07T07:28:29.657Z,101392.50
2022-08-07T07:31:02.196Z,101394.97
2022-08-07T07:33:34.008Z,101390.72
2022-08-07T07:36:12.824Z,101395.91
2022-08-07T07:38:43.410Z,101395.44
2022-08-07T07:41:17.544Z,101387.00
2022-08-07T07:44:17.931Z,101386.28
2022-08-07T07:46:55.665Z,101379.81
2022-08-07T07:50:36.254Z,101384.94
2022-08-07T07:52:17.728Z,101379.91
2022-08-07T07:54:51.208Z,101372.16
2022-08-07T07:57:51.518Z,101369.38
2022-08-07T08:00:20.754Z,101376.97
2022-08-07T08:03:06.829Z,101374.22
2022-08-07T08:05:53.615Z,101370.84
2022-08-07T08:08:36.071Z,101364.94
2022-08-07T08:11:08.422Z,101367.94
2022-08-07T08:13:55.469Z,101361.91
2022-08-07T08:16:35.138Z,101363.00
2022-08-07T08:19:09.664Z,101355.38
2022-08-07T08:22:07.810Z,101359.38
2022-08-07T08:25:09.465Z,101362.38
2022-08-07T08:27:56.628Z,101355.09
2022-08-07T08:30:34.585Z,101358.63
2022-08-07T08:33:05.409Z,101366.66
2022-08-07T08:35:47.017Z,101361.81
2022-08-07T08:38:21.990Z,101354.97
2022-08-07T08:41:08.055Z,101361.50
2022-08-07T08:43:56.178Z,101365.56
2022-08-07T08:46:32.162Z,101358.31
2022-08-07T08:49:16.613Z,101359.63
2022-08-07T08:52:13.839Z,101353.84
2022-08-07T08:54:56.306Z,101354.06
2022-08-07T08:57:45.150Z,101359.16
2022-08-07T09:00:14.002Z,101356.47
2022-08-07T09:02:57.677Z,101353.44
2022-08-07T09:05:37.183Z,101348.94
2022-08-07T09:08:28.634Z,101350.22
2022-08-07T09:11:14.033Z,101348.94
2022-08-07T09:14:17.984Z,101341.25
2022-08-07T09:17:27.722Z,101335.25
2022-08-07T09:20:58.148Z,101332.19
2022-08-07T09:24:32.970Z,101343.06
2022-08-07T09:27:08.974Z,101334.97
2022-08-07T09:30:05.876Z,101325.13
2022-08-07T09:33:16.525Z,101333.22
2022-08-07T09:36:02.738Z,101330.09
2022-08-07T09:39:11.465Z,101323.81
2022-08-07T09:42:09.297Z,101317.97
2022-08-07T09:47:26.254Z,101320.34
2022-08-07T09:48:11.349Z,101310.34
2022-08-07T09:51:01.170Z,101304.44
2022-08-07T09:53:40.585Z,101297.16
2022-08-07T09:56:37.282Z,101304.72
2022-08-07T09:59:07.790Z,101290.91
2022-08-07T10:02:11.651Z,101295.06
2022-08-07T10:04:55.107Z,101297.06
2022-08-07T10:07:53.179Z,101296.00
2022-08-07T10:11:59.391Z,101283.94
2022-08-07T10:14:23.119Z,101282.97
2022-08-07T10:17:18.327Z,101281.56
2022-08-07T10:20:01.700Z,101277.81
2022-08-07T10:22:56.601Z,101263.66
2022-08-07T10:25:53.162Z,101269.69
2022-08-07T10:28:30.910Z,101274.06
2022-08-07T10:31:38.982Z,101273.78
2022-08-07T10:34:27.271Z,101267.22
2022-08-07T10:37:18.999Z,101258.75
2022-08-07T10:40:09.049Z,101262.63
2022-08-07T10:42:37.365Z,101258.63
2022-08-07T10:45:58.462Z,101257.19
2022-08-07T10:48:38.368Z,101257.50
2022-08-07T10:51:16.971Z,101257.56
2022-08-07T10:54:21.750Z,101251.59
2022-08-07T10:57:22.152Z,101247.66
2022-08-07T11:00:36.162Z,101246.44
2022-08-07T11:03:28.137Z,101240.19
2022-08-07T11:06:26.828Z,101246.63
2022-08-07T11:10:09.294Z,101247.97
2022-08-07T11:12:31.837Z,101250.03
2022-08-07T11:15:09.594Z,101236.53
2022-08-07T11:17:56.933Z,101236.88
2022-08-07T11:21:04.340Z,101246.41
2022-08-07T11:23:39.529Z,101240.78
2022-08-07T11:26:16.208Z,101236.53
2022-08-07T11:28:56.631Z,101237.38
2022-08-07T11:31:45.069Z,101230.28
2022-08-07T11:34:50.647Z,101228.78
2022-08-07T11:37:57.983Z,101230.72
2022-08-07T11:40:47.760Z,101224.66
2022-08-07T11:43:29.455Z,101217.78
2022-08-07T11:46:23.385Z,101223.59
2022-08-07T11:49:51.130Z,101226.88
2022-08-07T11:52:29.474Z,101217.66
2022-08-07T11:56:25.528Z,101218.28
2022-08-07T11:58:33.142Z,101218.09
2022-08-07T12:01:59.982Z,101217.25
2022-08-07T12:04:45.991Z,101214.53
2022-08-07T12:07:39.253Z,101204.41
2022-08-07T12:10:17.859Z,101203.84
2022-08-07T12:13:16.923Z,101199.50
2022-08-07T12:16:14.738Z,101189.34
2022-08-07T12:18:57.709Z,101181.19
2022-08-07T12:22:38.845Z,101188.13
2022-08-07T12:26:06.106Z,101191.88
2022-08-07T12:28:53.037Z,101190.78
2022-08-07T12:32:01.767Z,101189.13
2022-08-07T12:34:35.984Z,101192.31
2022-08-07T12:37:08.466Z,101184.72
2022-08-07T12:39:50.754Z,101187.72
2022-08-07T12:42:27.535Z,101184.84
2022-08-07T12:44:58.654Z,101185.91
2022-08-07T12:48:13.371Z,101181.38
2022-08-07T12:51:17.363Z,101170.91
2022-08-07T12:54:37.685Z,101173.34
2022-08-07T12:56:59.022Z,101172.78
2022-08-07T12:59:53.852Z,101177.22
2022-08-07T13:02:49.546Z,101176.00
2022-08-07T13:06:02.690Z,101164.41
2022-08-07T13:08:32.753Z,101172.06
2022-08-07T13:12:02.337Z,101171.88
2022-08-07T13:14:46.753Z,101156.84
2022-08-07T13:17:43.946Z,101161.09
2022-08-07T13:20:12.769Z,101163.22
2022-08-07T13:24:00.661Z,101155.88
2022-08-07T13:26:46.555Z,101139.34
2022-08-07T13:29:47.829Z,101142.34
2022-08-07T13:32:31.900Z,101144.47
2022-08-07T13:36:00.569Z,101143.75
2022-08-07T13:38:30.543Z,101149.41
2022-08-07T13:41:16.748Z,101142.00
2022-08-07T13:43:52.305Z,101146.16
2022-08-07T13:46:31.359Z,101139.72
2022-08-07T13:49:05.139Z,101135.38
2022-08-07T13:52:05.510Z,101132.56
2022-08-07T13:54:40.566Z,101139.25
2022-08-07T13:57:24.182Z,101132.28
2022-08-07T13:59:57.402Z,101127.69
2022-08-07T14:02:39.492Z,101117.88
2022-08-07T14:05:23.210Z,101119.16
2022-08-07T14:08:00.207Z,101127.53
2022-08-07T14:10:42.198Z,101123.97
2022-08-07T14:13:16.348Z,101119.16
2022-08-07T14:15:58.768Z,101117.00
2022-08-07T14:18:40.075Z,101117.91
2022-08-07T14:22:00.921Z,101120.59
2022-08-07T14:24:12.625Z,101113.25
2022-08-07T14:30:07.249Z,101100.53
2022-08-07T14:32:50.602Z,101094.53
2022-08-07T14:35:44.727Z,101100.22
2022-08-07T14:38:30.624Z,101096.56
2022-08-07T14:41:05.907Z,101093.19
2022-08-07T14:43:57.950Z,101097.78
2022-08-07T14:46:33.247Z,101089.13
2022-08-07T14:49:55.824Z,101094.84
2022-08-07T14:54:44.833Z,101088.84
2022-08-07T14:57:19.393Z,101086.84
2022-08-07T15:00:06.898Z,101086.03
2022-08-07T15:02:39.239Z,101083.84
2022-08-07T15:05:20.456Z,101087.75
2022-08-07T15:07:51.797Z,101075.91
2022-08-07T15:10:25.094Z,101074.09
2022-08-07T15:13:11.594Z,101073.75
2022-08-07T15:15:42.167Z,101080.91
2022-08-07T15:18:28.651Z,101072.34
2022-08-07T15:21:58.706Z,101077.28
2022-08-07T15:25:14.125Z,101063.09
2022-08-07T15:27:05.209Z,101069.69
2022-08-07T15:30:09.564Z,101064.38
2022-08-07T15:32:39.175Z,101065.69
2022-08-07T15:35:16.773Z,101064.50
2022-08-07T15:38:04.420Z,101067.19
2022-08-07T15:41:00.312Z,101052.66
2022-08-07T15:43:56.354Z,101053.50
2022-08-07T15:46:32.110Z,101052.19
2022-08-07T15:49:19.046Z,101046.69
2022-08-07T15:54:43.013Z,101052.53
2022-08-07T15:57:27.945Z,101051.28
2022-08-07T16:00:07.778Z,101050.38
2022-08-07T16:02:47.152Z,101048.50
2022-08-07T16:05:23.267Z,101042.41
2022-08-07T16:08:30.793Z,101047.38
2022-08-07T16:11:27.095Z,101045.38
2022-08-07T16:14:10.524Z,101043.66
2022-08-07T16:18:01.448Z,101044.41
2022-08-07T16:20:43.021Z,101044.31
2022-08-07T16:23:54.473Z,101048.97
2022-08-07T16:26:30.945Z,101041.06
2022-08-07T16:30:11.440Z,101039.25
2022-08-07T16:32:38.509Z,101037.75
2022-08-07T16:35:56.843Z,101036.25
2022-08-07T16:38:59.994Z,101038.41
2022-08-07T16:41:41.122Z,101042.47
2022-08-07T16:46:21.012Z,101040.50
2022-08-07T16:48:37.658Z,101035.19
2022-08-07T16:52:51.850Z,101042.13
2022-08-07T16:55:43.642Z,101040.97
2022-08-07T16:59:02.293Z,101054.28
2022-08-07T17:01:27.439Z,101043.75
2022-08-07T17:04:24.679Z,101044.78
2022-08-07T17:07:03.128Z,101048.31
2022-08-07T17:10:06.648Z,101044.84
2022-08-07T17:13:04.590Z,101046.94
2022-08-07T17:15:50.592Z,101052.06
2022-08-07T17:18:39.535Z,101058.13
2022-08-07T17:21:24.485Z,101054.81
2022-08-07T17:24:03.614Z,101063.25
2022-08-07T17:26:52.326Z,101065.94
2022-08-07T17:30:14.458Z,101064.41
2022-08-07T17:32:51.983Z,101073.13
2022-08-07T17:35:50.411Z,101072.25
2022-08-07T17:38:35.093Z,101066.22
2022-08-07T17:41:12.514Z,101070.25
2022-08-07T17:44:08.238Z,101075.59
2022-08-07T17:47:05.694Z,101070.56
2022-08-07T17:49:55.835Z,101072.06
2022-08-07T17:52:43.459Z,101076.50
2022-08-07T17:56:00.849Z,101074.13
2022-08-07T17:58:30.512Z,101077.81
2022-08-07T18:01:17.983Z,101074.97
2022-08-07T18:04:16.482Z,101085.28
2022-08-07T18:07:19.597Z,101087.41
2022-08-07T18:10:06.863Z,101077.25
2022-08-07T18:12:51.356Z,101090.53
2022-08-07T18:15:33.135Z,101092.84
2022-08-07T18:18:46.565Z,101088.47
2022-08-07T18:21:29.556Z,101094.22
2022-08-07T18:24:07.122Z,101101.88
2022-08-07T18:26:47.301Z,101097.47
2022-08-07T18:30:05.749Z,101091.69
2022-08-07T18:32:16.114Z,101096.81
2022-08-07T18:35:10.478Z,101089.47
2022-08-07T18:38:55.413Z,101103.06
2022-08-07T18:41:07.992Z,101105.44
2022-08-07T18:44:01.837Z,101102.88
2022-08-07T18:46:47.685Z,101109.28
2022-08-07T18:50:32.022Z,101108.75
2022-08-07T18:52:37.376Z,101119.22
2022-08-07T18:55:56.150Z,101115.28
2022-08-07T18:58:56.484Z,101117.59
2022-08-07T19:02:19.070Z,101115.81
2022-08-07T19:04:59.509Z,101122.41
2022-08-07T19:07:58.818Z,101129.09
2022-08-07T19:10:49.448Z,101120.66
2022-08-07T19:13:51.016Z,101126.06
2022-08-07T19:17:06.041Z,101120.22
2022-08-07T19:19:50.097Z,101124.84
2022-08-07T19:22:31.259Z,101125.75
2022-08-07T19:25:06.693Z,101128.63
2022-08-07T19:28:56.984Z,101127.84
2022-08-07T19:31:00.136Z,101123.63
2022-08-07T19:33:34.977Z,101125.72
2022-08-07T19:36:05.227Z,101126.25
2022-08-07T19:38:52.994Z,101124.97
2022-08-07T19:41:39.053Z,101125.94
2022-08-07T19:44:23.880Z,101127.97
2022-08-07T19:47:11.473Z,101123.97
2022-08-07T19:49:57.722Z,101131.06
2022-08-07T19:52:31.708Z,101126.16
2022-08-07T19:55:02.931Z,101121.00
2022-08-07T19:58:03.045Z,101125.75
2022-08-07T20:00:55.644Z,101120.97
2022-08-07T20:03:33.642Z,101136.09
2022-08-07T20:06:05.006Z,101130.34
2022-08-07T20:08:38.852Z,101131.25
2022-08-07T20:11:12.260Z,101122.91
2022-08-07T20:13:53.823Z,101134.59
2022-08-07T20:16:36.367Z,101140.06
2022-08-07T20:19:11.398Z,101126.41
2022-08-07T20:21:47.723Z,101134.56
2022-08-07T20:24:28.926Z,101139.44
2022-08-07T20:27:02.322Z,101138.88
2022-08-07T20:29:48.698Z,101138.41
2022-08-07T20:32:40.397Z,101131.50
2022-08-07T20:35:26.602Z,101134.38
2022-08-07T20:37:59.638Z,101131.03
2022-08-07T20:40:40.583Z,101135.50
2022-08-07T20:43:16.946Z,101135.69
2022-08-07T20:46:28.721Z,101138.63
2022-08-07T20:48:58.381Z,101127.38
2022-08-07T20:51:35.749Z,101147.56
2022-08-07T20:54:11.786Z,101149.34
2022-08-07T20:56:49.861Z,101144.38
2022-08-07T21:00:05.245Z,101151.41
2022-08-07T21:02:54.349Z,101147.47
2022-08-07T21:05:54.426Z,101140.53
2022-08-07T21:08:38.068Z,101134.53
2022-08-07T21:11:14.429Z,101129.47
2022-08-07T21:14:29.493Z,101129.69
2022-08-07T21:17:06.638Z,101135.25
2022-08-07T21:19:51.305Z,101142.41
2022-08-07T21:22:31.089Z,101133.63
2022-08-07T21:25:44.697Z,101139.13
2022-08-07T21:28:49.034Z,101141.00
2022-08-07T21:32:42.332Z,101137.78
2022-08-07T21:34:58.062Z,101152.59
2022-08-07T21:37:57.135Z,101144.75
2022-08-07T21:40:45.734Z,101147.72
2022-08-07T21:43:29.114Z,101144.31
2022-08-07T21:46:31.434Z,101144.50
2022-08-07T21:49:28.581Z,101143.69
2022-08-07T21:52:13.234Z,101147.38
2022-08-07T21:54:55.389Z,101148.28
2022-08-07T21:57:39.936Z,101152.72
2022-08-07T22:00:25.303Z,101144.84
2022-08-07T22:03:17.373Z,101147.47
2022-08-07T22:05:55.031Z,101148.41
2022-08-07T22:08:42.612Z,101149.19
2022-08-07T22:11:17.582Z,101147.47
2022-08-07T22:13:52.535Z,101155.81
2022-08-07T22:16:46.629Z,101150.66
2022-08-07T22:19:38.525Z,101156.88
2022-08-07T22:22:28.901Z,101152.88
2022-08-07T22:25:08.278Z,101157.53
2022-08-07T22:28:07.529Z,101164.69
2022-08-07T22:30:52.996Z,101160.38
2022-08-07T22:33:52.986Z,101155.28
2022-08-07T22:36:38.460Z,101161.03
2022-08-07T22:39:52.660Z,101163.63
2022-08-07T22:42:53.889Z,101157.97
2022-08-07T22:46:21.220Z,101154.09
2022-08-07T22:48:55.613Z,101156.78
2022-08-07T22:51:36.975Z,101153.66
2022-08-07T22:54:16.400Z,101159.91
2022-08-07T22:56:56.200Z,101160.84
2022-08-07T22:59:49.815Z,101162.78
2022-08-07T23:02:59.407Z,101165.25
2022-08-07T23:06:08.827Z,101172.34
2022-08-07T23:10:00.963Z,101162.91
2022-08-07T23:12:21.011Z,101165.53
2022-08-07T23:16:07.386Z,101160.19
2022-08-07T23:18:20.151Z,101172.28
2022-08-07T23:21:00.112Z,101175.81
2022-08-07T23:24:04.402Z,101180.19
2022-08-07T23:26:49.989Z,101176.94
2022-08-07T23:30:37.933Z,101177.03
2022-08-07T23:34:33.968Z,101184.97
2022-08-07T23:36:03.663Z,101184.84
2022-08-07T23:39:12.677Z,101177.22
2022-08-07T23:42:21.405Z,101179.97
2022-08-07T23:45:15.301Z,101186.84
2022-08-07T23:48:30.760Z,101186.13
2022-08-07T23:53:05.397Z,101186.28
2022-08-07T23:54:36.065Z,101174.19
2022-08-07T23:57:30.520Z,101181.97
